Terminal Aerodrome Forecast
Issued by NWS

Home | Current Version | Previous Version | Text Only | Print | Product List | Glossary On
Versions: 1 2 3 4 5 6 7 8 9 10 11 12 13
175
FTUS42 KMLB 250537
TAFSUA
TAF
KSUA 250537Z 2506/2606 VRB03KT P6SM VCTS SCT020CB SCT040 BKN070
      TEMPO 2506/2507 6SM -TSRA BKN025CB BKN035
     FM250800 VRB02KT P6SM VCSH SCT025 SCT070 BKN250
     FM251500 06006KT P6SM SCT025 SCT250
     FM251800 08008KT P6SM VCTS BKN030CB
     FM252200 09008KT P6SM SCT030 BKN250
      AMD LTD TO CLD AND WIND TIL 251100=

USA.gov is the U.S. government's official web portal to all federal, state and local government web resources and services.